Time;durP1;ratioP1;P1;durP2;ratioP2;P2;SDS_P1;SDS_P2;PMS_P1;PMS_P2;Temp;Humidity;BMP_temperature;BMP_pressure;BME280_temperature;BME280_humidity;BME280_pressure;Samples;Min_cycle;Max_cycle;Signal;HPM_P1;HPM_P2
2023/09/21 00:01:06;;;;;;;1.83;1.10;;;19.30;99.90;;;;;;5048626;28;20241;-76
2023/09/21 00:03:32;;;;;;;4.85;1.40;;;19.20;99.90;;;;;;5047340;28;20179;-76
2023/09/21 00:05:58;;;;;;;3.80;1.52;;;19.20;99.90;;;;;;5044244;28;20721;-76
2023/09/21 00:08:24;;;;;;;2.97;1.33;;;19.20;99.90;;;;;;5051591;28;20208;-73
2023/09/21 00:10:50;;;;;;;2.33;1.27;;;19.10;99.90;;;;;;5048348;28;20215;-76
2023/09/21 00:13:17;;;;;;;3.83;1.65;;;19.10;99.90;;;;;;5049072;28;20219;-76
2023/09/21 00:15:44;;;;;;;2.75;0.90;;;19.10;99.90;;;;;;5052030;28;20199;-76
2023/09/21 00:18:10;;;;;;;3.35;1.60;;;19.10;99.90;;;;;;5045632;28;20207;-76
2023/09/21 00:23:07;;;;;;;2.10;1.33;;;19.00;99.90;;;;;;5047539;28;20204;-76
2023/09/21 00:25:33;;;;;;;2.13;1.20;;;19.00;99.90;;;;;;5043386;28;20216;-76
2023/09/21 00:27:58;;;;;;;3.22;1.45;;;18.80;99.90;;;;;;5047281;28;20216;-76
2023/09/21 00:30:24;;;;;;;3.33;1.55;;;18.90;99.90;;;;;;5051806;28;20567;-76
2023/09/21 00:32:50;;;;;;;2.33;1.30;;;18.90;99.90;;;;;;5050704;28;20208;-77
2023/09/21 00:35:16;;;;;;;2.75;1.63;;;18.80;99.90;;;;;;5042587;28;20297;-76
2023/09/21 00:37:43;;;;;;;2.03;1.48;;;18.80;99.90;;;;;;5041997;28;20235;-76
2023/09/21 00:40:18;;;;;;;2.72;1.52;;;18.80;99.90;;;;;;5051445;28;20585;-76
2023/09/21 00:42:47;;;;;;;1.30;1.17;;;18.80;99.90;;;;;;5044815;28;20184;-76
2023/09/21 00:45:14;;;;;;;3.03;1.50;;;18.80;99.90;;;;;;5050675;28;20176;-76
2023/09/21 00:47:46;;;;;;;2.10;1.27;;;18.80;99.90;;;;;;5047018;28;20245;-76
2023/09/21 00:50:12;;;;;;;3.92;1.50;;;18.70;99.90;;;;;;5058961;28;20220;-76
2023/09/21 00:52:45;;;;;;;1.88;1.20;;;18.70;99.90;;;;;;5047373;28;20215;-76
2023/09/21 00:55:22;;;;;;;4.93;1.98;;;18.60;99.90;;;;;;5047261;28;20204;-76
2023/09/21 00:57:50;;;;;;;2.58;1.55;;;18.60;99.90;;;;;;5050707;28;20669;-73
2023/09/21 01:00:16;;;;;;;4.07;1.50;;;18.60;99.90;;;;;;5052677;28;20241;-76
2023/09/21 01:02:43;;;;;;;3.13;1.42;;;18.60;99.90;;;;;;5050106;28;20709;-76
2023/09/21 01:05:17;;;;;;;3.17;1.40;;;18.60;99.90;;;;;;5052275;28;20203;-76
2023/09/21 01:07:45;;;;;;;3.47;1.40;;;18.50;99.90;;;;;;5048933;28;20382;-76
2023/09/21 01:10:11;;;;;;;3.38;1.33;;;18.40;99.90;;;;;;5050474;28;20291;-76
2023/09/21 01:12:38;;;;;;;2.58;1.38;;;18.40;99.90;;;;;;5047753;28;20697;-75
2023/09/21 01:15:05;;;;;;;2.58;1.55;;;18.40;99.90;;;;;;5040227;28;20177;-76
2023/09/21 01:17:32;;;;;;;2.83;1.33;;;18.40;99.90;;;;;;5048140;28;20235;-76
2023/09/21 01:19:57;;;;;;;3.70;1.88;;;18.30;99.90;;;;;;5046289;28;20365;-73
2023/09/21 01:22:27;;;;;;;2.10;1.50;;;18.30;99.90;;;;;;5045614;28;20208;-76
2023/09/21 01:24:53;;;;;;;2.28;1.73;;;18.30;99.90;;;;;;5047616;28;20174;-76
2023/09/21 01:27:20;;;;;;;4.38;1.77;;;18.30;99.90;;;;;;5048421;28;20211;-76
2023/09/21 01:29:46;;;;;;;2.92;1.67;;;18.30;99.90;;;;;;5047485;28;20277;-76
2023/09/21 01:32:12;;;;;;;3.13;1.50;;;18.20;99.90;;;;;;5047329;28;20222;-76
2023/09/21 01:34:38;;;;;;;2.58;1.50;;;18.20;99.90;;;;;;5046122;28;20208;-77
2023/09/21 01:37:05;;;;;;;1.48;1.38;;;18.30;99.90;;;;;;5050063;28;20712;-77
2023/09/21 01:39:31;;;;;;;3.00;2.05;;;18.40;99.90;;;;;;5050014;28;20263;-76
2023/09/21 01:41:56;;;;;;;4.47;1.58;;;18.30;99.90;;;;;;5050876;28;20290;-76
2023/09/21 01:44:22;;;;;;;2.47;1.50;;;18.30;99.90;;;;;;5049659;28;20243;-76
2023/09/21 01:46:49;;;;;;;3.50;1.58;;;18.30;99.90;;;;;;5050702;28;20218;-74
2023/09/21 01:49:16;;;;;;;3.13;1.60;;;18.20;99.90;;;;;;5047324;28;20764;-76
2023/09/21 01:51:42;;;;;;;2.42;1.17;;;18.20;99.90;;;;;;5042042;28;20203;-76
2023/09/21 01:54:07;;;;;;;1.83;1.38;;;18.10;99.90;;;;;;5057598;28;20230;-77
2023/09/21 01:56:34;;;;;;;2.38;1.50;;;18.10;99.90;;;;;;5051114;28;20231;-76
2023/09/21 01:59:00;;;;;;;1.70;1.38;;;18.10;99.90;;;;;;5045587;28;20203;-76
2023/09/21 02:01:26;;;;;;;3.60;1.50;;;18.10;99.90;;;;;;5048247;28;20207;-76
2023/09/21 02:03:56;;;;;;;2.53;1.33;;;18.00;99.90;;;;;;5050263;28;20184;-77
2023/09/21 02:06:22;;;;;;;2.50;1.60;;;18.00;99.90;;;;;;5046200;28;20195;-76
2023/09/21 02:08:49;;;;;;;3.83;1.58;;;18.00;99.90;;;;;;5046766;28;20208;-76
2023/09/21 02:11:14;;;;;;;2.95;1.40;;;18.10;99.90;;;;;;5048123;28;20199;-76
2023/09/21 02:13:40;;;;;;;7.15;1.70;;;18.10;99.90;;;;;;5048092;28;20595;-76
2023/09/21 02:16:06;;;;;;;3.58;1.60;;;18.00;99.90;;;;;;5065187;28;20230;-75
2023/09/21 02:18:33;;;;;;;2.63;1.60;;;18.00;99.90;;;;;;5043766;28;20819;-76
2023/09/21 02:21:00;;;;;;;1.83;1.20;;;18.00;99.90;;;;;;5042083;28;20584;-78
2023/09/21 02:23:25;;;;;;;3.08;1.67;;;18.00;99.90;;;;;;5049374;28;20207;-76
2023/09/21 02:25:52;;;;;;;2.47;1.58;;;17.80;99.90;;;;;;5040745;28;20212;-77
2023/09/21 02:28:17;;;;;;;3.20;1.30;;;17.80;99.90;;;;;;5038907;28;20212;-76
2023/09/21 02:30:47;;;;;;;2.63;1.52;;;17.70;99.90;;;;;;5042691;28;20260;-76
2023/09/21 02:33:17;;;;;;;1.85;1.38;;;17.80;99.90;;;;;;5044774;28;20583;-76
2023/09/21 02:35:44;;;;;;;2.45;1.48;;;17.70;99.90;;;;;;5049119;28;20730;-76
2023/09/21 02:38:11;;;;;;;2.47;1.85;;;17.70;99.90;;;;;;5042257;28;20211;-76
2023/09/21 02:40:39;;;;;;;4.05;1.67;;;17.80;99.90;;;;;;5046850;28;20199;-76
2023/09/21 02:43:05;;;;;;;2.95;1.55;;;17.80;99.90;;;;;;5042989;28;20225;-78
2023/09/21 02:45:31;;;;;;;2.60;1.42;;;17.70;99.90;;;;;;5050333;28;20191;-78
2023/09/21 02:48:01;;;;;;;2.38;2.00;;;17.70;99.90;;;;;;5049538;28;20252;-77
2023/09/21 02:50:27;;;;;;;2.78;1.55;;;17.70;99.90;;;;;;5048551;28;20207;-74
2023/09/21 02:52:57;;;;;;;3.28;1.48;;;17.70;99.90;;;;;;5048511;28;20223;-77
2023/09/21 02:55:27;;;;;;;2.65;1.75;;;17.60;99.90;;;;;;5049095;28;20200;-76
2023/09/21 02:58:10;;;;;;;2.90;1.83;;;17.50;99.90;;;;;;5049351;28;20175;-76
2023/09/21 03:00:42;;;;;;;2.90;1.40;;;17.50;99.90;;;;;;5044762;28;20651;-77
2023/09/21 03:03:10;;;;;;;3.85;1.85;;;17.50;99.90;;;;;;5037651;28;20172;-76
2023/09/21 03:05:38;;;;;;;3.20;1.60;;;17.40;99.90;;;;;;5045115;28;20697;-76
2023/09/21 03:08:05;;;;;;;2.80;1.83;;;17.40;99.90;;;;;;5046218;28;20214;-77
2023/09/21 03:10:31;;;;;;;2.35;1.52;;;17.30;99.90;;;;;;5042200;28;20207;-76
2023/09/21 03:12:58;;;;;;;2.03;1.63;;;17.30;99.90;;;;;;5040679;28;20306;-77
2023/09/21 03:15:24;;;;;;;3.65;1.65;;;17.40;99.90;;;;;;5047081;28;20178;-77
2023/09/21 03:17:54;;;;;;;2.22;1.63;;;17.40;99.90;;;;;;5051992;28;20213;-75
2023/09/21 03:23:16;;;;;;;3.00;1.55;;;17.40;99.90;;;;;;5045612;28;20645;-76
2023/09/21 03:25:49;;;;;;;1.92;1.58;;;17.30;99.90;;;;;;5056566;28;20294;-79
2023/09/21 03:28:16;;;;;;;2.35;1.50;;;17.30;99.90;;;;;;5053986;28;20218;-77
2023/09/21 03:30:47;;;;;;;2.05;1.75;;;17.30;99.90;;;;;;5055683;28;20599;-77
2023/09/21 03:33:17;;;;;;;2.45;1.75;;;17.30;99.90;;;;;;5052293;28;20252;-77
2023/09/21 03:35:43;;;;;;;3.78;2.30;;;17.30;99.90;;;;;;5054338;28;20698;-77
2023/09/21 03:38:12;;;;;;;2.72;2.35;;;17.30;99.90;;;;;;5043381;28;20218;-76
2023/09/21 03:40:39;;;;;;;3.05;1.73;;;17.30;99.90;;;;;;5043952;28;20631;-77
2023/09/21 03:43:06;;;;;;;5.75;2.13;;;17.20;99.90;;;;;;5042653;28;20266;-79
2023/09/21 03:45:32;;;;;;;2.08;1.70;;;17.20;99.90;;;;;;5049111;28;20175;-77
2023/09/21 03:48:05;;;;;;;3.25;2.13;;;17.30;99.90;;;;;;5055978;28;20245;-77
2023/09/21 03:50:31;;;;;;;3.00;1.65;;;17.30;99.90;;;;;;5045541;28;20276;-76
2023/09/21 03:52:59;;;;;;;2.80;1.80;;;17.20;99.90;;;;;;5052874;28;20223;-77
2023/09/21 03:55:25;;;;;;;2.72;2.00;;;17.20;99.90;;;;;;5054284;28;20234;-77
2023/09/21 03:57:51;;;;;;;4.10;1.67;;;17.20;99.90;;;;;;5055671;28;20262;-76
2023/09/21 04:03:04;;;;;;;2.28;1.65;;;17.20;99.90;;;;;;5052777;28;20211;-76
2023/09/21 04:05:37;;;;;;;2.38;1.85;;;17.10;99.90;;;;;;5054945;28;20211;-77
2023/09/21 04:08:03;;;;;;;2.53;1.65;;;17.10;99.90;;;;;;5047899;28;20212;-78
2023/09/21 04:10:30;;;;;;;3.22;2.10;;;17.20;99.90;;;;;;5049993;28;20657;-77
2023/09/21 04:12:56;;;;;;;2.33;1.90;;;17.20;99.90;;;;;;5051620;28;20257;-78
2023/09/21 04:15:26;;;;;;;4.80;1.80;;;17.20;99.90;;;;;;5051106;28;20275;-77
2023/09/21 04:17:53;;;;;;;4.95;2.20;;;17.10;99.90;;;;;;5054886;28;20265;-78
2023/09/21 04:20:19;;;;;;;6.22;1.75;;;17.20;99.90;;;;;;5045979;28;20211;-76
2023/09/21 04:22:50;;;;;;;1.77;1.50;;;17.20;99.90;;;;;;5051336;28;20254;-78
2023/09/21 04:25:17;;;;;;;2.45;1.63;;;17.20;99.90;;;;;;5046649;28;20208;-77
2023/09/21 04:27:47;;;;;;;3.13;2.45;;;17.20;99.90;;;;;;5053787;28;20195;-77
2023/09/21 04:30:22;;;;;;;4.43;1.77;;;17.10;99.90;;;;;;5050891;28;20187;-77
2023/09/21 04:32:48;;;;;;;2.80;1.88;;;17.10;99.90;;;;;;5048032;28;20207;-77
2023/09/21 04:35:15;;;;;;;3.00;1.77;;;17.10;99.90;;;;;;5049233;28;20201;-77
2023/09/21 04:37:45;;;;;;;6.15;2.22;;;17.10;99.90;;;;;;5049742;28;20204;-77
2023/09/21 04:40:12;;;;;;;3.50;2.13;;;17.10;99.90;;;;;;5048684;28;20207;-77
2023/09/21 04:42:39;;;;;;;2.60;1.92;;;17.10;99.90;;;;;;5051559;28;20180;-77
2023/09/21 04:45:11;;;;;;;3.03;2.10;;;17.00;99.90;;;;;;5050977;28;20214;-78
2023/09/21 04:47:42;;;;;;;3.95;2.20;;;17.10;99.90;;;;;;5051875;28;20227;-79
2023/09/21 04:50:12;;;;;;;3.03;1.80;;;17.10;99.90;;;;;;5051995;28;20211;-77
2023/09/21 04:52:38;;;;;;;2.92;1.70;;;17.00;99.90;;;;;;5051091;28;20231;-78
2023/09/21 04:55:08;;;;;;;4.97;2.22;;;17.00;99.90;;;;;;5043169;28;20562;-78
2023/09/21 04:57:34;;;;;;;3.15;1.60;;;17.10;99.90;;;;;;5044982;28;20192;-78
2023/09/21 05:00:03;;;;;;;3.47;1.77;;;17.00;99.90;;;;;;5048494;28;20720;-77
2023/09/21 05:02:30;;;;;;;3.03;2.17;;;17.00;99.90;;;;;;5048795;28;20207;-79
2023/09/21 05:04:55;;;;;;;2.78;2.25;;;17.00;99.90;;;;;;5042544;28;20692;-78
2023/09/21 05:07:21;;;;;;;3.90;2.55;;;17.10;99.90;;;;;;5045261;28;20258;-77
2023/09/21 05:09:47;;;;;;;2.90;1.90;;;17.10;99.90;;;;;;5048287;28;20203;-78
2023/09/21 05:12:13;;;;;;;4.78;2.22;;;17.10;99.90;;;;;;5045211;28;20204;-78
2023/09/21 05:14:39;;;;;;;7.20;2.78;;;17.10;99.90;;;;;;5048642;28;20199;-78
2023/09/21 05:17:05;;;;;;;2.75;2.00;;;17.20;99.90;;;;;;5048125;28;20203;-78
2023/09/21 05:19:34;;;;;;;4.63;2.08;;;17.20;99.90;;;;;;5049722;28;20262;-78
2023/09/21 05:22:01;;;;;;;2.47;1.45;;;17.30;99.90;;;;;;5050405;28;20214;-79
2023/09/21 05:24:27;;;;;;;2.63;2.00;;;17.30;99.90;;;;;;5050572;28;20653;-78
2023/09/21 05:26:53;;;;;;;3.17;1.77;;;17.20;99.90;;;;;;5064437;23;20243;-81
2023/09/21 05:29:20;;;;;;;2.35;1.83;;;17.30;99.90;;;;;;5032718;28;20201;-80
2023/09/21 05:31:47;;;;;;;2.92;2.10;;;17.30;99.90;;;;;;5037135;28;20220;-80
2023/09/21 05:34:13;;;;;;;3.78;2.13;;;17.40;99.90;;;;;;5036822;28;20350;-81
2023/09/21 05:36:39;;;;;;;3.05;2.25;;;17.40;99.90;;;;;;5033190;28;20307;-80
2023/09/21 05:39:05;;;;;;;3.78;2.15;;;17.60;99.90;;;;;;5034001;28;20216;-80
2023/09/21 05:41:31;;;;;;;4.82;2.25;;;17.70;99.90;;;;;;5034628;28;20220;-80
2023/09/21 05:43:57;;;;;;;3.13;2.22;;;17.80;99.90;;;;;;5033379;28;20208;-79
2023/09/21 05:46:23;;;;;;;2.83;1.67;;;18.00;99.90;;;;;;5050298;28;20235;-80
2023/09/21 05:48:49;;;;;;;3.42;2.00;;;19.40;99.90;;;;;;5036325;28;20230;-79
2023/09/21 05:51:14;;;;;;;3.33;2.03;;;20.20;99.90;;;;;;5033063;28;20608;-80
2023/09/21 05:53:40;;;;;;;4.35;2.30;;;21.70;99.90;;;;;;5036324;28;20212;-81
2023/09/21 05:56:05;;;;;;;3.88;1.90;;;22.50;99.90;;;;;;5032373;28;20212;-82
2023/09/21 05:58:31;;;;;;;4.10;2.45;;;23.50;99.90;;;;;;5039247;28;20215;-80
2023/09/21 06:00:59;;;;;;;3.50;2.53;;;23.70;99.90;;;;;;5034550;28;20211;-79
2023/09/21 06:03:27;;;;;;;3.13;2.13;;;24.50;99.90;;;;;;5027971;28;20595;-81
2023/09/21 06:05:53;;;;;;;3.65;2.20;;;24.70;99.90;;;;;;5027704;28;20286;-79
2023/09/21 06:08:19;;;;;;;2.78;2.17;;;23.50;99.90;;;;;;5022381;28;20224;-81
2023/09/21 06:10:46;;;;;;;7.53;2.60;;;22.80;99.90;;;;;;5027281;28;20208;-81
2023/09/21 06:13:12;;;;;;;3.83;2.55;;;22.90;99.90;;;;;;5026716;28;20732;-81
2023/09/21 06:15:46;;;;;;;9.25;2.35;;;21.80;99.90;;;;;;5034887;28;20176;-80
2023/09/21 06:18:11;;;;;;;4.80;2.17;;;20.90;99.90;;;;;;5032812;28;20196;-81
2023/09/21 06:20:37;;;;;;;9.63;2.42;;;20.20;99.90;;;;;;5027512;28;20713;-81
2023/09/21 06:23:06;;;;;;;7.13;2.67;;;20.60;99.90;;;;;;5033851;28;20212;-79
2023/09/21 06:25:33;;;;;;;6.15;2.58;;;21.10;99.90;;;;;;5031532;28;20213;-81
2023/09/21 06:27:58;;;;;;;4.30;2.35;;;22.50;99.90;;;;;;5033021;28;20219;-79
2023/09/21 06:30:24;;;;;;;5.30;2.35;;;24.40;99.90;;;;;;5035175;28;20199;-79
2023/09/21 06:32:49;;;;;;;4.15;2.63;;;24.90;99.90;;;;;;5030706;28;20204;-81
2023/09/21 06:35:15;;;;;;;4.03;2.50;;;25.90;99.90;;;;;;5032830;28;20212;-80
2023/09/21 06:37:41;;;;;;;3.05;2.38;;;26.30;99.90;;;;;;5031404;28;20227;-79
2023/09/21 06:40:07;;;;;;;4.45;2.38;;;27.30;99.90;;;;;;5030531;28;20215;-80
2023/09/21 06:42:33;;;;;;;7.75;2.17;;;27.90;99.90;;;;;;5033351;28;20174;-79
2023/09/21 06:44:59;;;;;;;5.15;2.63;;;27.80;99.90;;;;;;5031626;28;20216;-80
2023/09/21 06:47:28;;;;;;;7.35;2.97;;;28.30;99.90;;;;;;5032387;28;20208;-78
2023/09/21 06:49:54;;;;;;;8.23;2.40;;;29.00;99.90;;;;;;5032218;28;20205;-79
2023/09/21 06:52:23;;;;;;;4.90;2.40;;;29.40;99.90;;;;;;5028972;28;20724;-79
2023/09/21 06:54:49;;;;;;;3.78;1.98;;;29.30;99.90;;;;;;5026883;28;20723;-78
2023/09/21 06:57:17;;;;;;;3.80;2.63;;;29.30;99.90;;;;;;5031724;28;20225;-80
2023/09/21 06:59:43;;;;;;;2.60;2.25;;;27.90;99.90;;;;;;5030898;28;20204;-79
2023/09/21 07:02:08;;;;;;;5.65;2.53;;;28.00;99.90;;;;;;5030204;28;20222;-80
2023/09/21 07:04:34;;;;;;;4.63;2.10;;;26.90;99.90;;;;;;5031934;28;20204;-80
2023/09/21 07:07:04;;;;;;;4.05;2.00;;;26.30;99.90;;;;;;5032705;28;20208;-80
2023/09/21 07:09:36;;;;;;;4.75;2.80;;;26.20;99.90;;;;;;5030674;28;20378;-77
2023/09/21 07:12:04;;;;;;;7.75;2.25;;;26.20;99.90;;;;;;5028256;28;20216;-79
2023/09/21 07:14:32;;;;;;;6.38;2.47;;;26.90;99.90;;;;;;5029984;28;20211;-80
2023/09/21 07:16:59;;;;;;;5.28;3.10;;;27.60;99.90;;;;;;5029858;28;20209;-80
2023/09/21 07:19:25;;;;;;;3.05;1.95;;;28.20;99.90;;;;;;5027818;28;20224;-79
2023/09/21 07:21:50;;;;;;;7.05;2.90;;;28.60;99.90;;;;;;5033870;28;20203;-79
2023/09/21 07:24:16;;;;;;;5.07;2.03;;;29.90;99.90;;;;;;5032172;28;20267;-78
2023/09/21 07:26:45;;;;;;;3.17;2.13;;;29.60;99.90;;;;;;5031732;28;20244;-79
2023/09/21 07:29:11;;;;;;;3.35;1.90;;;28.60;99.90;;;;;;5027950;28;20290;-77
2023/09/21 07:31:37;;;;;;;4.93;2.28;;;28.40;99.90;;;;;;5021689;28;20215;-80
2023/09/21 07:34:03;;;;;;;6.78;2.22;;;29.70;99.90;;;;;;5032030;28;20215;-79
2023/09/21 07:36:29;;;;;;;4.05;2.28;;;30.20;99.90;;;;;;5032832;28;20192;-80
2023/09/21 07:38:57;;;;;;;2.88;1.83;;;29.50;99.90;;;;;;5031098;28;20222;-79
2023/09/21 07:41:23;;;;;;;4.95;2.08;;;29.10;99.90;;;;;;5040053;28;20208;-81
2023/09/21 07:43:48;;;;;;;4.78;2.13;;;28.80;99.90;;;;;;5031683;28;20207;-79
2023/09/21 07:46:14;;;;;;;4.85;1.90;;;28.90;99.90;;;;;;5031976;28;20777;-79
2023/09/21 07:48:40;;;;;;;2.60;1.98;;;28.80;99.90;;;;;;5032048;28;20176;-80
2023/09/21 07:51:07;;;;;;;4.68;2.20;;;28.70;99.90;;;;;;5031200;28;20176;-80
2023/09/21 07:53:35;;;;;;;2.63;1.70;;;28.10;99.90;;;;;;5036945;28;20218;-80
2023/09/21 07:56:08;;;;;;;5.68;1.90;;;27.60;99.90;;;;;;5031592;28;20218;-79
2023/09/21 07:58:34;;;;;;;2.67;1.85;;;27.00;99.90;;;;;;5033194;28;20601;-80
2023/09/21 08:01:00;;;;;;;5.55;1.73;;;27.10;99.90;;;;;;5022619;28;20221;-79
2023/09/21 08:03:26;;;;;;;2.78;1.50;;;27.50;99.90;;;;;;5035359;28;20192;-80
2023/09/21 08:05:55;;;;;;;4.70;1.75;;;28.10;99.90;;;;;;5033639;28;20256;-80
2023/09/21 08:08:22;;;;;;;3.17;1.58;;;29.00;99.90;;;;;;5030775;28;20287;-79
2023/09/21 08:10:50;;;;;;;4.90;1.60;;;29.00;99.90;;;;;;5036804;28;20617;-80
2023/09/21 08:13:16;;;;;;;4.78;1.50;;;29.10;99.90;;;;;;5032686;28;20378;-80
2023/09/21 08:15:42;;;;;;;5.72;1.40;;;28.90;99.90;;;;;;5031487;28;20192;-80
2023/09/21 08:18:10;;;;;;;4.18;2.20;;;29.70;99.90;;;;;;5035850;28;20211;-80
2023/09/21 08:20:39;;;;;;;4.78;1.80;;;29.80;99.90;;;;;;5035522;28;20205;-78
2023/09/21 08:23:06;;;;;;;4.47;1.90;;;28.60;99.90;;;;;;5034069;28;20221;-80
2023/09/21 08:25:35;;;;;;;2.20;1.65;;;28.30;99.90;;;;;;5033949;28;20204;-79
2023/09/21 08:28:03;;;;;;;2.83;1.85;;;28.20;99.90;;;;;;5036409;28;20230;-82
2023/09/21 08:30:32;;;;;;;2.50;1.90;;;27.70;99.90;;;;;;5039690;28;20200;-81
2023/09/21 08:32:58;;;;;;;3.60;1.75;;;27.90;99.90;;;;;;5035759;28;20223;-80
2023/09/21 08:35:24;;;;;;;4.88;1.90;;;28.00;99.90;;;;;;5038208;28;20216;-82
2023/09/21 08:37:50;;;;;;;2.38;2.10;;;27.80;99.90;;;;;;5032176;28;20207;-81
2023/09/21 08:40:17;;;;;;;2.25;1.60;;;27.50;99.90;;;;;;5035961;28;20223;-81
2023/09/21 08:42:46;;;;;;;4.47;2.22;;;27.50;99.90;;;;;;5048180;28;20180;-82
2023/09/21 08:45:13;;;;;;;2.38;1.50;;;28.60;99.90;;;;;;5038003;28;20219;-81
2023/09/21 08:47:40;;;;;;;4.68;1.70;;;28.80;99.90;;;;;;5031871;28;20212;-80
2023/09/21 08:50:09;;;;;;;2.70;1.77;;;28.10;99.90;;;;;;5028447;28;20847;-80
2023/09/21 08:52:36;;;;;;;3.95;2.10;;;27.10;99.90;;;;;;5037190;28;20250;-79
2023/09/21 08:55:02;;;;;;;4.90;1.50;;;27.30;99.90;;;;;;5037310;28;20216;-80
2023/09/21 08:57:28;;;;;;;3.05;2.00;;;28.10;99.90;;;;;;5034831;28;20310;-81
2023/09/21 08:59:56;;;;;;;3.83;1.73;;;27.30;99.90;;;;;;5031314;28;20231;-81
2023/09/21 09:02:23;;;;;;;2.35;1.73;;;26.40;99.90;;;;;;5031993;28;20606;-80
2023/09/21 09:04:50;;;;;;;4.95;1.88;;;26.30;99.90;;;;;;5027078;28;20212;-81
2023/09/21 09:07:18;;;;;;;3.97;2.25;;;26.40;99.90;;;;;;5037492;28;20258;-79
2023/09/21 09:09:46;;;;;;;4.50;2.00;;;26.60;99.90;;;;;;5037225;28;20259;-80
2023/09/21 09:12:21;;;;;;;8.68;1.60;;;26.40;99.90;;;;;;5038549;28;20204;-81
2023/09/21 09:14:46;;;;;;;3.05;1.73;;;26.50;99.90;;;;;;5037160;28;20236;-81
2023/09/21 09:17:14;;;;;;;2.75;1.50;;;26.70;99.90;;;;;;5033645;28;20216;-80
2023/09/21 09:19:40;;;;;;;2.92;1.83;;;26.70;99.90;;;;;;5036956;28;20235;-80
2023/09/21 09:22:05;;;;;;;2.90;2.10;;;26.70;99.90;;;;;;5032947;28;20212;-81
2023/09/21 09:24:31;;;;;;;4.45;1.88;;;27.30;99.90;;;;;;5035333;28;20187;-81
2023/09/21 09:26:57;;;;;;;4.13;1.85;;;27.30;99.90;;;;;;5032143;28;20220;-80
2023/09/21 09:29:24;;;;;;;3.65;1.73;;;27.00;99.90;;;;;;5039120;28;20211;-81
2023/09/21 09:31:50;;;;;;;5.35;1.85;;;26.60;99.90;;;;;;5035870;28;20200;-81
2023/09/21 09:34:17;;;;;;;2.60;1.55;;;26.40;99.90;;;;;;5031691;28;20620;-80
2023/09/21 09:36:49;;;;;;;5.85;1.60;;;26.50;99.90;;;;;;5029603;28;20203;-81
2023/09/21 09:39:15;;;;;;;3.10;1.60;;;26.90;99.90;;;;;;5034735;28;20183;-80
2023/09/21 09:41:41;;;;;;;4.15;1.77;;;26.40;99.90;;;;;;5035864;28;20224;-80
2023/09/21 09:44:08;;;;;;;2.40;1.40;;;26.70;99.90;;;;;;5039097;28;20331;-81
2023/09/21 09:46:39;;;;;;;3.65;1.30;;;27.20;99.90;;;;;;5036760;28;20232;-81
2023/09/21 09:49:07;;;;;;;4.20;1.60;;;27.60;99.90;;;;;;5041606;28;20220;-82
2023/09/21 09:51:44;;;;;;;2.67;1.80;;;27.10;99.90;;;;;;5040877;28;20184;-81
2023/09/21 09:54:12;;;;;;;4.38;1.60;;;26.60;99.90;;;;;;5055459;28;20208;-81
2023/09/21 09:56:41;;;;;;;3.75;2.00;;;26.10;99.90;;;;;;5033899;28;20220;-80
2023/09/21 09:59:10;;;;;;;3.97;1.60;;;26.20;99.90;;;;;;5033417;28;20283;-80
2023/09/21 10:01:37;;;;;;;2.65;1.30;;;26.20;99.90;;;;;;5034527;28;20275;-81
2023/09/21 10:04:07;;;;;;;4.72;1.40;;;26.10;99.90;;;;;;5030101;28;20212;-80
2023/09/21 10:06:37;;;;;;;4.82;1.40;;;26.70;99.90;;;;;;5031065;28;20256;-81
2023/09/21 10:09:13;;;;;;;1.73;1.27;;;27.40;99.90;;;;;;5030691;28;20288;-81
2023/09/21 10:11:48;;;;;;;5.43;1.63;;;27.50;99.90;;;;;;5036081;28;20219;-81
2023/09/21 10:14:16;;;;;;;2.53;1.52;;;27.10;99.90;;;;;;5039562;28;20209;-81
2023/09/21 10:16:49;;;;;;;6.18;2.00;;;27.50;99.90;;;;;;5035100;28;20212;-81
2023/09/21 10:19:26;;;;;;;2.60;1.70;;;27.70;99.90;;;;;;5038471;28;20211;-77
2023/09/21 10:22:03;;;;;;;3.70;1.60;;;27.50;99.90;;;;;;5031742;28;20169;-76
2023/09/21 10:24:30;;;;;;;2.35;1.75;;;27.30;99.90;;;;;;5027879;28;20187;-77
2023/09/21 10:27:03;;;;;;;5.40;1.40;;;27.40;99.90;;;;;;5026858;28;20274;-76
2023/09/21 10:29:40;;;;;;;2.60;1.50;;;27.30;99.90;;;;;;5029294;28;20228;-74
2023/09/21 10:32:06;;;;;;;1.77;1.27;;;27.30;99.90;;;;;;5023766;28;21189;-77
2023/09/21 10:34:32;;;;;;;3.85;2.10;;;27.30;99.90;;;;;;5019533;28;20287;-74
2023/09/21 10:37:06;;;;;;;3.33;1.30;;;27.70;99.90;;;;;;5023063;28;20646;-75
2023/09/21 10:39:32;;;;;;;3.60;1.38;;;27.70;99.90;;;;;;5020735;28;20195;-74
2023/09/21 10:42:04;;;;;;;2.45;1.50;;;27.60;99.90;;;;;;5018742;28;20239;-74
2023/09/21 10:44:59;;;;;;;2.20;1.17;;;27.70;99.90;;;;;;5020903;28;20239;-75
2023/09/21 10:47:44;;;;;;;3.80;1.48;;;28.30;99.90;;;;;;5025427;28;20212;-74
2023/09/21 10:50:19;;;;;;;2.63;1.65;;;28.30;99.90;;;;;;5017581;28;20596;-76
2023/09/21 10:52:47;;;;;;;1.02;0.93;;;28.00;99.90;;;;;;5025513;28;20223;-76
2023/09/21 10:55:15;;;;;;;2.33;1.08;;;27.60;99.90;;;;;;5029014;28;20702;-75
2023/09/21 10:57:42;;;;;;;1.83;1.17;;;27.50;99.90;;;;;;5029923;28;21050;-76
2023/09/21 11:00:21;;;;;;;2.58;1.25;;;27.60;99.90;;;;;;5030056;28;20200;-76
2023/09/21 11:02:49;;;;;;;2.22;1.10;;;27.50;99.90;;;;;;5027641;28;20215;-75
2023/09/21 11:05:19;;;;;;;2.55;1.27;;;27.60;99.90;;;;;;5023762;28;20592;-74
2023/09/21 11:07:47;;;;;;;1.85;1.30;;;27.70;99.90;;;;;;5024675;28;20290;-74
2023/09/21 11:10:14;;;;;;;1.77;1.10;;;27.50;99.90;;;;;;5024511;28;20690;-75
2023/09/21 11:12:40;;;;;;;3.08;1.60;;;27.60;99.90;;;;;;5029528;28;20212;-75
2023/09/21 11:15:16;;;;;;;3.42;1.23;;;27.70;99.90;;;;;;5028179;28;20184;-74
2023/09/21 11:17:43;;;;;;;4.75;1.83;;;27.80;99.90;;;;;;5023006;28;20217;-74
2023/09/21 11:20:14;;;;;;;4.35;1.60;;;27.70;99.90;;;;;;5028227;28;20227;-74
2023/09/21 11:22:44;;;;;;;4.88;1.63;;;27.90;99.90;;;;;;5027033;28;20254;-73
2023/09/21 11:25:16;;;;;;;3.53;1.17;;;27.70;99.90;;;;;;5022204;28;20227;-76
2023/09/21 11:27:43;;;;;;;2.08;1.23;;;27.60;99.90;;;;;;5019384;28;20278;-75
2023/09/21 11:30:13;;;;;;;2.83;1.48;;;27.70;99.90;;;;;;5026520;28;20184;-75
2023/09/21 11:32:46;;;;;;;5.05;1.23;;;27.60;99.90;;;;;;5025565;28;20212;-76
2023/09/21 11:35:16;;;;;;;1.73;1.40;;;27.60;99.90;;;;;;5028615;28;20200;-75
2023/09/21 11:37:41;;;;;;;1.80;1.23;;;27.50;99.90;;;;;;5025692;28;20216;-77
2023/09/21 11:40:13;;;;;;;6.47;2.28;;;27.60;99.90;;;;;;5028166;28;20565;-75
2023/09/21 11:42:45;;;;;;;5.78;1.70;;;27.50;99.90;;;;;;5028826;28;20325;-76
2023/09/21 11:45:19;;;;;;;5.03;1.40;;;27.40;99.90;;;;;;5032711;28;20172;-75
2023/09/21 11:47:54;;;;;;;2.72;1.88;;;27.60;99.90;;;;;;5029903;28;20219;-75
2023/09/21 11:50:30;;;;;;;1.42;1.02;;;27.60;99.90;;;;;;5027118;28;20203;-76
2023/09/21 11:52:56;;;;;;;1.38;1.27;;;27.70;99.90;;;;;;5025646;28;20317;-76
2023/09/21 11:55:27;;;;;;;5.32;1.38;;;27.50;99.90;;;;;;5028080;28;20343;-76
2023/09/21 11:58:08;;;;;;;3.50;1.40;;;27.40;99.90;;;;;;5027327;28;20196;-75
2023/09/21 12:01:12;;;;;;;1.83;1.40;;;27.60;99.90;;;;;;5033452;28;20311;-76
2023/09/21 12:03:37;;;;;;;1.88;1.30;;;27.70;99.90;;;;;;5029210;28;20215;-73
2023/09/21 12:06:03;;;;;;;2.53;1.30;;;27.60;99.90;;;;;;5032569;28;20173;-76
2023/09/21 12:08:29;;;;;;;4.20;1.45;;;27.90;99.90;;;;;;5030251;28;20204;-75
2023/09/21 12:10:55;;;;;;;3.63;1.40;;;27.80;99.90;;;;;;5025684;28;20606;-75
2023/09/21 12:13:21;;;;;;;2.63;1.52;;;27.70;99.90;;;;;;5026988;28;20231;-73
2023/09/21 12:15:49;;;;;;;1.85;1.20;;;27.60;99.90;;;;;;5023789;28;20686;-75
2023/09/21 12:18:15;;;;;;;2.42;1.25;;;27.60;99.90;;;;;;5028846;28;20689;-74
2023/09/21 12:20:49;;;;;;;2.95;1.63;;;27.70;99.90;;;;;;5025391;28;20301;-76
2023/09/21 12:23:17;;;;;;;3.30;1.50;;;27.70;99.90;;;;;;5031219;28;20267;-71
2023/09/21 12:25:43;;;;;;;2.35;1.30;;;27.70;99.90;;;;;;5029982;28;20207;-70
2023/09/21 12:28:09;;;;;;;3.17;1.50;;;27.60;99.90;;;;;;5030632;28;20212;-72
2023/09/21 12:30:37;;;;;;;2.20;1.35;;;27.60;99.90;;;;;;5031156;28;20267;-71
2023/09/21 12:33:06;;;;;;;5.05;2.00;;;27.60;99.90;;;;;;5029777;28;20200;-73
2023/09/21 12:35:31;;;;;;;1.92;1.30;;;27.60;99.90;;;;;;5030366;28;20224;-72
2023/09/21 12:37:58;;;;;;;2.00;1.63;;;27.60;99.90;;;;;;5029535;28;20212;-73
2023/09/21 12:40:23;;;;;;;2.13;1.17;;;27.70;99.90;;;;;;5031008;28;20683;-72
2023/09/21 12:42:49;;;;;;;3.17;1.55;;;27.80;99.90;;;;;;5030024;28;20184;-73
2023/09/21 12:45:15;;;;;;;4.25;1.30;;;27.80;99.90;;;;;;5031373;28;20173;-73
2023/09/21 12:47:41;;;;;;;3.13;1.30;;;27.90;99.90;;;;;;5030362;28;20204;-71
2023/09/21 12:50:12;;;;;;;4.20;1.20;;;27.80;99.90;;;;;;5022267;28;20214;-73
2023/09/21 12:52:42;;;;;;;2.20;1.30;;;27.70;99.90;;;;;;5021988;28;20213;-76
2023/09/21 12:55:08;;;;;;;4.75;1.33;;;27.70;99.90;;;;;;5022558;28;20647;-75
2023/09/21 12:57:36;;;;;;;4.45;1.08;;;27.70;99.90;;;;;;5027941;28;20189;-74
2023/09/21 13:00:18;;;;;;;5.20;1.30;;;27.60;99.90;;;;;;5027603;28;20232;-74